sensor_id;sensor_type;location;lat;lon;timestamp;P1;durP1;ratioP1;P2;durP2;ratioP2
38785;SDS011;24535;45.508;12.252;2024-02-21T00:08:26;29.33;;;24.30;;
38785;SDS011;24535;45.508;12.252;2024-02-21T00:10:58;32.13;;;25.38;;
38785;SDS011;24535;45.508;12.252;2024-02-21T00:13:23;35.20;;;26.02;;
38785;SDS011;24535;45.508;12.252;2024-02-21T00:24:14;30.65;;;25.35;;
38785;SDS011;24535;45.508;12.252;2024-02-21T00:26:46;31.63;;;26.08;;
38785;SDS011;24535;45.508;12.252;2024-02-21T00:29:17;30.30;;;25.30;;
38785;SDS011;24535;45.508;12.252;2024-02-21T00:31:49;31.05;;;24.95;;
38785;SDS011;24535;45.508;12.252;2024-02-21T00:34:23;32.70;;;25.77;;
38785;SDS011;24535;45.508;12.252;2024-02-21T00:36:49;32.15;;;26.13;;
38785;SDS011;24535;45.508;12.252;2024-02-21T00:41:53;38.45;;;26.52;;
38785;SDS011;24535;45.508;12.252;2024-02-21T00:44:35;38.40;;;28.07;;
38785;SDS011;24535;45.508;12.252;2024-02-21T00:55:49;37.20;;;29.00;;
38785;SDS011;24535;45.508;12.252;2024-02-21T00:58:15;36.85;;;28.08;;
38785;SDS011;24535;45.508;12.252;2024-02-21T01:00:46;35.60;;;28.13;;
38785;SDS011;24535;45.508;12.252;2024-02-21T01:10:55;33.95;;;27.50;;
38785;SDS011;24535;45.508;12.252;2024-02-21T01:13:27;32.47;;;25.92;;
38785;SDS011;24535;45.508;12.252;2024-02-21T01:43:19;32.28;;;26.23;;
38785;SDS011;24535;45.508;12.252;2024-02-21T02:32:38;35.72;;;28.85;;
38785;SDS011;24535;45.508;12.252;2024-02-21T02:35:13;33.47;;;28.52;;
38785;SDS011;24535;45.508;12.252;2024-02-21T02:37:54;34.45;;;29.75;;
38785;SDS011;24535;45.508;12.252;2024-02-21T02:40:25;33.72;;;27.58;;
38785;SDS011;24535;45.508;12.252;2024-02-21T02:51:45;35.92;;;30.08;;
38785;SDS011;24535;45.508;12.252;2024-02-21T02:57:14;37.10;;;29.55;;
38785;SDS011;24535;45.508;12.252;2024-02-21T02:59:55;37.42;;;29.98;;
38785;SDS011;24535;45.508;12.252;2024-02-21T03:02:30;38.88;;;30.17;;
38785;SDS011;24535;45.508;12.252;2024-02-21T03:08:18;32.05;;;26.52;;
38785;SDS011;24535;45.508;12.252;2024-02-21T03:10:46;34.67;;;27.13;;
38785;SDS011;24535;45.508;12.252;2024-02-21T03:13:17;29.98;;;26.50;;
38785;SDS011;24535;45.508;12.252;2024-02-21T03:15:49;29.42;;;25.00;;
38785;SDS011;24535;45.508;12.252;2024-02-21T03:18:23;32.33;;;26.17;;
38785;SDS011;24535;45.508;12.252;2024-02-21T03:21:25;28.75;;;24.63;;
38785;SDS011;24535;45.508;12.252;2024-02-21T03:23:49;32.08;;;27.13;;
38785;SDS011;24535;45.508;12.252;2024-02-21T03:36:48;30.58;;;25.48;;
38785;SDS011;24535;45.508;12.252;2024-02-21T03:39:13;31.90;;;26.48;;
38785;SDS011;24535;45.508;12.252;2024-02-21T03:41:38;28.27;;;24.63;;
38785;SDS011;24535;45.508;12.252;2024-02-21T03:51:53;29.48;;;24.25;;
38785;SDS011;24535;45.508;12.252;2024-02-21T03:57:08;29.80;;;25.13;;
38785;SDS011;24535;45.508;12.252;2024-02-21T04:07:47;27.27;;;23.65;;
38785;SDS011;24535;45.508;12.252;2024-02-21T04:10:15;26.58;;;23.17;;
38785;SDS011;24535;45.508;12.252;2024-02-21T04:12:41;29.90;;;24.17;;
38785;SDS011;24535;45.508;12.252;2024-02-21T04:15:12;27.77;;;22.63;;
38785;SDS011;24535;45.508;12.252;2024-02-21T04:17:44;27.55;;;23.33;;
38785;SDS011;24535;45.508;12.252;2024-02-21T04:20:13;28.58;;;23.20;;
38785;SDS011;24535;45.508;12.252;2024-02-21T04:22:45;26.60;;;21.90;;
38785;SDS011;24535;45.508;12.252;2024-02-21T04:31:11;25.38;;;20.27;;
38785;SDS011;24535;45.508;12.252;2024-02-21T05:04:42;23.27;;;19.63;;
38785;SDS011;24535;45.508;12.252;2024-02-21T05:10:26;19.95;;;17.20;;
38785;SDS011;24535;45.508;12.252;2024-02-21T05:15:54;21.92;;;18.38;;
38785;SDS011;24535;45.508;12.252;2024-02-21T05:18:23;19.10;;;16.55;;
38785;SDS011;24535;45.508;12.252;2024-02-21T05:34:02;20.50;;;17.23;;
38785;SDS011;24535;45.508;12.252;2024-02-21T05:44:34;21.63;;;16.83;;
38785;SDS011;24535;45.508;12.252;2024-02-21T05:47:09;19.58;;;17.15;;
38785;SDS011;24535;45.508;12.252;2024-02-21T05:49:44;20.65;;;16.33;;
38785;SDS011;24535;45.508;12.252;2024-02-21T05:54:57;20.17;;;17.92;;
38785;SDS011;24535;45.508;12.252;2024-02-21T05:59:58;24.38;;;17.63;;
38785;SDS011;24535;45.508;12.252;2024-02-21T06:14:58;18.98;;;16.38;;
38785;SDS011;24535;45.508;12.252;2024-02-21T06:17:34;20.08;;;16.45;;
38785;SDS011;24535;45.508;12.252;2024-02-21T06:27:47;20.00;;;17.40;;
38785;SDS011;24535;45.508;12.252;2024-02-21T06:30:27;21.20;;;16.83;;
38785;SDS011;24535;45.508;12.252;2024-02-21T06:38:03;20.63;;;17.15;;
38785;SDS011;24535;45.508;12.252;2024-02-21T06:40:47;20.00;;;17.70;;
38785;SDS011;24535;45.508;12.252;2024-02-21T06:43:22;22.02;;;16.30;;
38785;SDS011;24535;45.508;12.252;2024-02-21T06:45:47;22.98;;;17.83;;
38785;SDS011;24535;45.508;12.252;2024-02-21T06:50:57;21.45;;;17.15;;
38785;SDS011;24535;45.508;12.252;2024-02-21T07:11:31;23.35;;;16.25;;
38785;SDS011;24535;45.508;12.252;2024-02-21T07:13:59;24.83;;;17.75;;
38785;SDS011;24535;45.508;12.252;2024-02-21T07:16:31;20.13;;;14.88;;
38785;SDS011;24535;45.508;12.252;2024-02-21T07:19:00;19.80;;;14.68;;
38785;SDS011;24535;45.508;12.252;2024-02-21T07:21:36;17.93;;;13.93;;
38785;SDS011;24535;45.508;12.252;2024-02-21T07:24:26;24.88;;;13.43;;
38785;SDS011;24535;45.508;12.252;2024-02-21T07:34:49;17.20;;;13.38;;
38785;SDS011;24535;45.508;12.252;2024-02-21T07:37:15;15.05;;;12.35;;
38785;SDS011;24535;45.508;12.252;2024-02-21T07:55:34;14.63;;;11.10;;
38785;SDS011;24535;45.508;12.252;2024-02-21T07:58:22;12.93;;;10.63;;
38785;SDS011;24535;45.508;12.252;2024-02-21T08:19:52;14.50;;;10.68;;
38785;SDS011;24535;45.508;12.252;2024-02-21T08:32:48;11.70;;;7.20;;
38785;SDS011;24535;45.508;12.252;2024-02-21T08:41:15;8.55;;;6.75;;
38785;SDS011;24535;45.508;12.252;2024-02-21T08:43:45;7.38;;;6.05;;
38785;SDS011;24535;45.508;12.252;2024-02-21T08:46:10;8.32;;;6.45;;
38785;SDS011;24535;45.508;12.252;2024-02-21T09:29:21;4.50;;;3.40;;
38785;SDS011;24535;45.508;12.252;2024-02-21T09:32:09;6.70;;;3.75;;
38785;SDS011;24535;45.508;12.252;2024-02-21T09:34:40;4.82;;;3.70;;
38785;SDS011;24535;45.508;12.252;2024-02-21T09:43:29;4.50;;;3.40;;
38785;SDS011;24535;45.508;12.252;2024-02-21T09:45:58;4.63;;;2.85;;
38785;SDS011;24535;45.508;12.252;2024-02-21T09:52:02;3.83;;;2.55;;
38785;SDS011;24535;45.508;12.252;2024-02-21T09:54:34;4.60;;;3.45;;
38785;SDS011;24535;45.508;12.252;2024-02-21T10:00:05;5.05;;;2.80;;
38785;SDS011;24535;45.508;12.252;2024-02-21T10:02:46;4.85;;;3.00;;
38785;SDS011;24535;45.508;12.252;2024-02-21T10:05:23;5.53;;;2.83;;
38785;SDS011;24535;45.508;12.252;2024-02-21T10:07:50;3.53;;;2.70;;
38785;SDS011;24535;45.508;12.252;2024-02-21T10:10:22;4.20;;;2.60;;
38785;SDS011;24535;45.508;12.252;2024-02-21T10:12:48;3.17;;;2.45;;
38785;SDS011;24535;45.508;12.252;2024-02-21T10:15:23;3.38;;;2.55;;
38785;SDS011;24535;45.508;12.252;2024-02-21T10:17:59;3.42;;;2.60;;
38785;SDS011;24535;45.508;12.252;2024-02-21T10:20:25;4.22;;;2.28;;
38785;SDS011;24535;45.508;12.252;2024-02-21T10:23:04;3.13;;;2.67;;
38785;SDS011;24535;45.508;12.252;2024-02-21T10:29:10;3.33;;;2.60;;
38785;SDS011;24535;45.508;12.252;2024-02-21T10:31:36;3.95;;;3.13;;
38785;SDS011;24535;45.508;12.252;2024-02-21T10:34:03;3.42;;;2.60;;
38785;SDS011;24535;45.508;12.252;2024-02-21T10:36:30;3.90;;;2.40;;
38785;SDS011;24535;45.508;12.252;2024-02-21T10:38:56;3.90;;;2.97;;
38785;SDS011;24535;45.508;12.252;2024-02-21T10:41:22;4.95;;;2.80;;
38785;SDS011;24535;45.508;12.252;2024-02-21T10:43:57;3.72;;;2.45;;
38785;SDS011;24535;45.508;12.252;2024-02-21T10:46:42;4.25;;;2.63;;
38785;SDS011;24535;45.508;12.252;2024-02-21T10:49:22;4.25;;;2.40;;
38785;SDS011;24535;45.508;12.252;2024-02-21T10:54:59;5.13;;;2.70;;
38785;SDS011;24535;45.508;12.252;2024-02-21T10:57:36;6.78;;;3.28;;
38785;SDS011;24535;45.508;12.252;2024-02-21T11:00:50;2.75;;;2.47;;
38785;SDS011;24535;45.508;12.252;2024-02-21T11:03:28;4.47;;;3.40;;
38785;SDS011;24535;45.508;12.252;2024-02-21T11:06:11;5.97;;;3.33;;
38785;SDS011;24535;45.508;12.252;2024-02-21T11:11:13;4.32;;;3.50;;
38785;SDS011;24535;45.508;12.252;2024-02-21T11:13:42;3.80;;;2.92;;
38785;SDS011;24535;45.508;12.252;2024-02-21T11:16:36;5.15;;;3.15;;
38785;SDS011;24535;45.508;12.252;2024-02-21T11:19:22;4.90;;;3.13;;
38785;SDS011;24535;45.508;12.252;2024-02-21T11:22:28;5.78;;;2.97;;
38785;SDS011;24535;45.508;12.252;2024-02-21T11:28:36;3.75;;;2.88;;
38785;SDS011;24535;45.508;12.252;2024-02-21T11:36:23;3.30;;;2.92;;
38785;SDS011;24535;45.508;12.252;2024-02-21T11:42:06;3.67;;;2.95;;
38785;SDS011;24535;45.508;12.252;2024-02-21T11:44:41;4.28;;;3.10;;
38785;SDS011;24535;45.508;12.252;2024-02-21T11:47:08;2.88;;;2.25;;
38785;SDS011;24535;45.508;12.252;2024-02-21T11:52:43;4.50;;;2.72;;
38785;SDS011;24535;45.508;12.252;2024-02-21T11:55:27;5.53;;;3.10;;
38785;SDS011;24535;45.508;12.252;2024-02-21T11:58:08;4.85;;;2.60;;
38785;SDS011;24535;45.508;12.252;2024-02-21T12:00:44;3.53;;;2.67;;
38785;SDS011;24535;45.508;12.252;2024-02-21T12:03:16;5.50;;;2.97;;
38785;SDS011;24535;45.508;12.252;2024-02-21T12:05:47;4.03;;;2.67;;
38785;SDS011;24535;45.508;12.252;2024-02-21T12:08:13;4.88;;;2.58;;
38785;SDS011;24535;45.508;12.252;2024-02-21T12:10:44;3.85;;;2.85;;
38785;SDS011;24535;45.508;12.252;2024-02-21T12:13:25;4.50;;;2.50;;
38785;SDS011;24535;45.508;12.252;2024-02-21T12:16:02;4.18;;;3.15;;
38785;SDS011;24535;45.508;12.252;2024-02-21T12:29:38;5.47;;;3.45;;
38785;SDS011;24535;45.508;12.252;2024-02-21T13:03:33;8.35;;;4.43;;
38785;SDS011;24535;45.508;12.252;2024-02-21T13:11:12;7.55;;;4.30;;
38785;SDS011;24535;45.508;12.252;2024-02-21T13:13:38;8.05;;;3.95;;
38785;SDS011;24535;45.508;12.252;2024-02-21T13:16:07;5.70;;;3.60;;
38785;SDS011;24535;45.508;12.252;2024-02-21T13:18:38;10.75;;;4.28;;
38785;SDS011;24535;45.508;12.252;2024-02-21T13:21:11;5.50;;;3.63;;
38785;SDS011;24535;45.508;12.252;2024-02-21T13:23:37;6.10;;;3.38;;
38785;SDS011;24535;45.508;12.252;2024-02-21T13:26:24;10.40;;;4.55;;
38785;SDS011;24535;45.508;12.252;2024-02-21T13:29:15;5.30;;;3.90;;
38785;SDS011;24535;45.508;12.252;2024-02-21T13:31:50;6.53;;;4.35;;
38785;SDS011;24535;45.508;12.252;2024-02-21T13:34:19;6.10;;;4.30;;
38785;SDS011;24535;45.508;12.252;2024-02-21T13:39:52;6.85;;;3.80;;
38785;SDS011;24535;45.508;12.252;2024-02-21T13:42:24;7.82;;;4.35;;
38785;SDS011;24535;45.508;12.252;2024-02-21T13:44:55;5.28;;;4.22;;
38785;SDS011;24535;45.508;12.252;2024-02-21T13:47:23;5.70;;;3.63;;
38785;SDS011;24535;45.508;12.252;2024-02-21T13:50:14;4.57;;;3.22;;
38785;SDS011;24535;45.508;12.252;2024-02-21T13:52:45;6.73;;;4.30;;
38785;SDS011;24535;45.508;12.252;2024-02-21T13:55:14;4.63;;;3.78;;
38785;SDS011;24535;45.508;12.252;2024-02-21T14:05:34;7.93;;;4.00;;
38785;SDS011;24535;45.508;12.252;2024-02-21T14:08:03;10.35;;;4.80;;
38785;SDS011;24535;45.508;12.252;2024-02-21T14:10:39;7.57;;;4.65;;
38785;SDS011;24535;45.508;12.252;2024-02-21T14:13:05;5.37;;;4.17;;
38785;SDS011;24535;45.508;12.252;2024-02-21T14:21:38;5.35;;;3.50;;
38785;SDS011;24535;45.508;12.252;2024-02-21T14:27:03;4.97;;;3.58;;
38785;SDS011;24535;45.508;12.252;2024-02-21T14:36:32;4.43;;;3.15;;
38785;SDS011;24535;45.508;12.252;2024-02-21T14:39:03;4.65;;;3.58;;
38785;SDS011;24535;45.508;12.252;2024-02-21T14:41:31;5.10;;;3.65;;
38785;SDS011;24535;45.508;12.252;2024-02-21T14:49:05;7.43;;;3.33;;
38785;SDS011;24535;45.508;12.252;2024-02-21T14:52:05;3.75;;;2.45;;
38785;SDS011;24535;45.508;12.252;2024-02-21T14:54:33;5.18;;;3.03;;
38785;SDS011;24535;45.508;12.252;2024-02-21T14:56:59;5.63;;;3.42;;
38785;SDS011;24535;45.508;12.252;2024-02-21T14:59:31;7.10;;;3.20;;
38785;SDS011;24535;45.508;12.252;2024-02-21T15:05:43;4.35;;;2.92;;
38785;SDS011;24535;45.508;12.252;2024-02-21T15:08:08;3.30;;;2.50;;
38785;SDS011;24535;45.508;12.252;2024-02-21T15:10:38;4.38;;;2.78;;
38785;SDS011;24535;45.508;12.252;2024-02-21T15:13:10;3.67;;;3.30;;
38785;SDS011;24535;45.508;12.252;2024-02-21T15:15:39;3.45;;;2.28;;
38785;SDS011;24535;45.508;12.252;2024-02-21T15:18:04;3.78;;;2.50;;
38785;SDS011;24535;45.508;12.252;2024-02-21T15:20:33;3.28;;;2.50;;
38785;SDS011;24535;45.508;12.252;2024-02-21T15:23:04;2.87;;;2.43;;
38785;SDS011;24535;45.508;12.252;2024-02-21T15:25:32;4.15;;;2.20;;
38785;SDS011;24535;45.508;12.252;2024-02-21T15:27:58;3.05;;;2.20;;
38785;SDS011;24535;45.508;12.252;2024-02-21T15:30:34;3.60;;;1.92;;
38785;SDS011;24535;45.508;12.252;2024-02-21T15:33:07;8.48;;;2.40;;
38785;SDS011;24535;45.508;12.252;2024-02-21T15:35:38;8.13;;;2.40;;
38785;SDS011;24535;45.508;12.252;2024-02-21T15:38:07;2.88;;;1.92;;
38785;SDS011;24535;45.508;12.252;2024-02-21T15:40:40;3.78;;;2.28;;
38785;SDS011;24535;45.508;12.252;2024-02-21T15:43:11;8.02;;;2.28;;
38785;SDS011;24535;45.508;12.252;2024-02-21T15:45:37;4.15;;;1.90;;
38785;SDS011;24535;45.508;12.252;2024-02-21T15:51:37;4.78;;;2.05;;
38785;SDS011;24535;45.508;12.252;2024-02-21T15:54:05;4.13;;;2.53;;
38785;SDS011;24535;45.508;12.252;2024-02-21T15:56:36;3.83;;;2.17;;
38785;SDS011;24535;45.508;12.252;2024-02-21T15:59:14;5.28;;;2.30;;
38785;SDS011;24535;45.508;12.252;2024-02-21T16:01:49;3.67;;;2.75;;
38785;SDS011;24535;45.508;12.252;2024-02-21T16:09:43;5.60;;;2.38;;
38785;SDS011;24535;45.508;12.252;2024-02-21T16:12:09;5.55;;;2.17;;
38785;SDS011;24535;45.508;12.252;2024-02-21T16:14:35;3.88;;;2.20;;
38785;SDS011;24535;45.508;12.252;2024-02-21T16:17:02;6.30;;;3.30;;
38785;SDS011;24535;45.508;12.252;2024-02-21T16:19:36;4.47;;;2.60;;
38785;SDS011;24535;45.508;12.252;2024-02-21T16:22:13;4.40;;;2.97;;
38785;SDS011;24535;45.508;12.252;2024-02-21T16:24:51;4.05;;;2.78;;
38785;SDS011;24535;45.508;12.252;2024-02-21T16:27:28;4.78;;;2.72;;
38785;SDS011;24535;45.508;12.252;2024-02-21T16:29:57;4.50;;;2.70;;
38785;SDS011;24535;45.508;12.252;2024-02-21T16:32:32;6.10;;;2.73;;
38785;SDS011;24535;45.508;12.252;2024-02-21T16:35:08;4.15;;;2.53;;
38785;SDS011;24535;45.508;12.252;2024-02-21T16:37:34;4.72;;;2.72;;
38785;SDS011;24535;45.508;12.252;2024-02-21T16:39:59;10.18;;;3.42;;
38785;SDS011;24535;45.508;12.252;2024-02-21T16:42:25;4.13;;;2.97;;
38785;SDS011;24535;45.508;12.252;2024-02-21T16:44:50;4.32;;;2.92;;
38785;SDS011;24535;45.508;12.252;2024-02-21T16:47:16;5.25;;;2.85;;
38785;SDS011;24535;45.508;12.252;2024-02-21T16:49:51;5.38;;;3.40;;
38785;SDS011;24535;45.508;12.252;2024-02-21T16:52:16;4.63;;;3.42;;
38785;SDS011;24535;45.508;12.252;2024-02-21T16:54:48;3.50;;;2.70;;
38785;SDS011;24535;45.508;12.252;2024-02-21T16:57:20;4.50;;;2.90;;
38785;SDS011;24535;45.508;12.252;2024-02-21T16:59:45;4.43;;;3.35;;
38785;SDS011;24535;45.508;12.252;2024-02-21T17:02:17;4.20;;;2.85;;
38785;SDS011;24535;45.508;12.252;2024-02-21T17:04:43;4.60;;;3.22;;
38785;SDS011;24535;45.508;12.252;2024-02-21T17:07:14;4.35;;;3.10;;
38785;SDS011;24535;45.508;12.252;2024-02-21T17:09:43;4.65;;;2.83;;
38785;SDS011;24535;45.508;12.252;2024-02-21T17:12:11;4.10;;;2.77;;
38785;SDS011;24535;45.508;12.252;2024-02-21T17:17:34;4.25;;;2.97;;
38785;SDS011;24535;45.508;12.252;2024-02-21T17:20:15;3.10;;;2.70;;
38785;SDS011;24535;45.508;12.252;2024-02-21T17:22:44;3.72;;;2.65;;
38785;SDS011;24535;45.508;12.252;2024-02-21T17:25:13;8.57;;;3.10;;
38785;SDS011;24535;45.508;12.252;2024-02-21T17:27:39;5.23;;;2.90;;
38785;SDS011;24535;45.508;12.252;2024-02-21T17:30:04;6.15;;;3.22;;
38785;SDS011;24535;45.508;12.252;2024-02-21T17:32:34;6.45;;;2.85;;
38785;SDS011;24535;45.508;12.252;2024-02-21T17:35:04;4.78;;;3.20;;
38785;SDS011;24535;45.508;12.252;2024-02-21T17:37:31;3.90;;;2.80;;
38785;SDS011;24535;45.508;12.252;2024-02-21T17:40:07;5.18;;;3.67;;
38785;SDS011;24535;45.508;12.252;2024-02-21T17:42:39;3.08;;;2.53;;
38785;SDS011;24535;45.508;12.252;2024-02-21T17:45:51;4.03;;;2.88;;
38785;SDS011;24535;45.508;12.252;2024-02-21T17:48:30;7.15;;;3.13;;
38785;SDS011;24535;45.508;12.252;2024-02-21T17:50:55;7.25;;;3.15;;
38785;SDS011;24535;45.508;12.252;2024-02-21T17:53:21;4.30;;;3.13;;
38785;SDS011;24535;45.508;12.252;2024-02-21T17:56:14;3.97;;;3.33;;
38785;SDS011;24535;45.508;12.252;2024-02-21T17:58:42;5.65;;;3.53;;
38785;SDS011;24535;45.508;12.252;2024-02-21T18:01:08;4.10;;;2.88;;
38785;SDS011;24535;45.508;12.252;2024-02-21T18:03:33;5.43;;;3.55;;
38785;SDS011;24535;45.508;12.252;2024-02-21T18:06:14;4.38;;;3.55;;
38785;SDS011;24535;45.508;12.252;2024-02-21T18:09:12;6.72;;;3.85;;
38785;SDS011;24535;45.508;12.252;2024-02-21T18:11:38;4.85;;;3.90;;
38785;SDS011;24535;45.508;12.252;2024-02-21T18:14:41;6.43;;;4.60;;
38785;SDS011;24535;45.508;12.252;2024-02-21T18:17:06;8.68;;;4.65;;
38785;SDS011;24535;45.508;12.252;2024-02-21T18:19:33;5.13;;;3.90;;
38785;SDS011;24535;45.508;12.252;2024-02-21T18:27:19;5.30;;;4.80;;
38785;SDS011;24535;45.508;12.252;2024-02-21T18:29:44;6.03;;;4.35;;
38785;SDS011;24535;45.508;12.252;2024-02-21T18:32:16;8.38;;;4.65;;
38785;SDS011;24535;45.508;12.252;2024-02-21T18:34:42;7.85;;;3.72;;
38785;SDS011;24535;45.508;12.252;2024-02-21T18:37:09;6.28;;;3.97;;
38785;SDS011;24535;45.508;12.252;2024-02-21T18:39:37;5.15;;;4.55;;
38785;SDS011;24535;45.508;12.252;2024-02-21T18:42:03;6.93;;;5.17;;
38785;SDS011;24535;45.508;12.252;2024-02-21T18:44:29;5.38;;;4.72;;
38785;SDS011;24535;45.508;12.252;2024-02-21T18:46:57;7.85;;;4.95;;
38785;SDS011;24535;45.508;12.252;2024-02-21T18:49:22;6.63;;;5.00;;
38785;SDS011;24535;45.508;12.252;2024-02-21T18:51:54;8.10;;;5.30;;
38785;SDS011;24535;45.508;12.252;2024-02-21T18:54:23;6.65;;;5.03;;
38785;SDS011;24535;45.508;12.252;2024-02-21T18:56:54;6.63;;;5.00;;
38785;SDS011;24535;45.508;12.252;2024-02-21T18:59:29;5.35;;;4.72;;
38785;SDS011;24535;45.508;12.252;2024-02-21T19:01:54;7.45;;;5.65;;
38785;SDS011;24535;45.508;12.252;2024-02-21T19:04:20;10.20;;;5.25;;
38785;SDS011;24535;45.508;12.252;2024-02-21T19:06:49;6.28;;;4.97;;
38785;SDS011;24535;45.508;12.252;2024-02-21T19:12:11;6.57;;;5.15;;
38785;SDS011;24535;45.508;12.252;2024-02-21T19:14:39;7.07;;;5.40;;
38785;SDS011;24535;45.508;12.252;2024-02-21T19:17:05;6.70;;;5.32;;
38785;SDS011;24535;45.508;12.252;2024-02-21T19:19:32;7.07;;;6.32;;
38785;SDS011;24535;45.508;12.252;2024-02-21T19:22:05;9.15;;;6.47;;
38785;SDS011;24535;45.508;12.252;2024-02-21T19:24:34;8.93;;;5.93;;
38785;SDS011;24535;45.508;12.252;2024-02-21T19:27:14;6.82;;;5.78;;
38785;SDS011;24535;45.508;12.252;2024-02-21T19:29:45;7.78;;;5.95;;
38785;SDS011;24535;45.508;12.252;2024-02-21T19:32:11;11.13;;;6.45;;
38785;SDS011;24535;45.508;12.252;2024-02-21T19:34:43;8.57;;;6.60;;
38785;SDS011;24535;45.508;12.252;2024-02-21T19:37:15;9.55;;;6.82;;
38785;SDS011;24535;45.508;12.252;2024-02-21T19:39:40;10.45;;;6.53;;
38785;SDS011;24535;45.508;12.252;2024-02-21T19:42:09;11.40;;;7.00;;
38785;SDS011;24535;45.508;12.252;2024-02-21T19:45:09;8.98;;;6.22;;
38785;SDS011;24535;45.508;12.252;2024-02-21T19:47:42;8.87;;;7.17;;
38785;SDS011;24535;45.508;12.252;2024-02-21T19:50:11;8.48;;;6.72;;
38785;SDS011;24535;45.508;12.252;2024-02-21T19:52:43;9.10;;;7.30;;
38785;SDS011;24535;45.508;12.252;2024-02-21T19:55:08;8.68;;;7.10;;
38785;SDS011;24535;45.508;12.252;2024-02-21T19:57:34;9.07;;;7.60;;
38785;SDS011;24535;45.508;12.252;2024-02-21T20:00:03;8.98;;;7.90;;
38785;SDS011;24535;45.508;12.252;2024-02-21T20:11:01;9.38;;;8.00;;
38785;SDS011;24535;45.508;12.252;2024-02-21T20:13:26;10.50;;;8.25;;
38785;SDS011;24535;45.508;12.252;2024-02-21T20:16:20;11.25;;;9.48;;
38785;SDS011;24535;45.508;12.252;2024-02-21T20:18:47;12.02;;;8.80;;
38785;SDS011;24535;45.508;12.252;2024-02-21T20:24:07;12.02;;;9.15;;
38785;SDS011;24535;45.508;12.252;2024-02-21T20:26:40;12.30;;;9.82;;
38785;SDS011;24535;45.508;12.252;2024-02-21T20:32:11;13.10;;;9.27;;
38785;SDS011;24535;45.508;12.252;2024-02-21T20:34:43;15.45;;;10.95;;
38785;SDS011;24535;45.508;12.252;2024-02-21T20:37:11;15.07;;;11.25;;
38785;SDS011;24535;45.508;12.252;2024-02-21T20:39:42;15.43;;;11.63;;
38785;SDS011;24535;45.508;12.252;2024-02-21T20:42:33;14.90;;;12.18;;
38785;SDS011;24535;45.508;12.252;2024-02-21T20:45:01;16.15;;;12.23;;
38785;SDS011;24535;45.508;12.252;2024-02-21T20:50:37;21.02;;;13.95;;
38785;SDS011;24535;45.508;12.252;2024-02-21T21:02:58;17.92;;;13.02;;
38785;SDS011;24535;45.508;12.252;2024-02-21T21:05:24;18.48;;;13.63;;
38785;SDS011;24535;45.508;12.252;2024-02-21T21:07:49;17.67;;;13.02;;
38785;SDS011;24535;45.508;12.252;2024-02-21T21:10:17;16.90;;;12.10;;
38785;SDS011;24535;45.508;12.252;2024-02-21T21:12:43;17.77;;;13.30;;
38785;SDS011;24535;45.508;12.252;2024-02-21T21:15:08;17.50;;;13.18;;
38785;SDS011;24535;45.508;12.252;2024-02-21T21:17:51;19.70;;;13.25;;
38785;SDS011;24535;45.508;12.252;2024-02-21T21:20:28;17.60;;;13.07;;
38785;SDS011;24535;45.508;12.252;2024-02-21T21:22:55;19.45;;;13.98;;
38785;SDS011;24535;45.508;12.252;2024-02-21T21:25:22;19.80;;;13.63;;
38785;SDS011;24535;45.508;12.252;2024-02-21T21:27:47;18.70;;;14.18;;
38785;SDS011;24535;45.508;12.252;2024-02-21T21:32:51;17.20;;;12.85;;
38785;SDS011;24535;45.508;12.252;2024-02-21T21:35:24;17.98;;;13.10;;
38785;SDS011;24535;45.508;12.252;2024-02-21T21:37:53;18.80;;;12.75;;
38785;SDS011;24535;45.508;12.252;2024-02-21T21:40:45;19.55;;;14.30;;
38785;SDS011;24535;45.508;12.252;2024-02-21T21:43:29;21.25;;;14.25;;
38785;SDS011;24535;45.508;12.252;2024-02-21T21:46:03;16.95;;;13.95;;
38785;SDS011;24535;45.508;12.252;2024-02-21T21:48:28;18.83;;;13.55;;
38785;SDS011;24535;45.508;12.252;2024-02-21T21:51:03;16.88;;;13.18;;
38785;SDS011;24535;45.508;12.252;2024-02-21T21:53:29;17.88;;;12.50;;
38785;SDS011;24535;45.508;12.252;2024-02-21T21:55:57;19.23;;;14.35;;
38785;SDS011;24535;45.508;12.252;2024-02-21T21:58:31;21.27;;;15.57;;
38785;SDS011;24535;45.508;12.252;2024-02-21T22:00:56;19.38;;;14.32;;
38785;SDS011;24535;45.508;12.252;2024-02-21T22:03:25;17.15;;;14.13;;
38785;SDS011;24535;45.508;12.252;2024-02-21T22:05:50;18.77;;;12.82;;
38785;SDS011;24535;45.508;12.252;2024-02-21T22:08:16;17.52;;;13.93;;
38785;SDS011;24535;45.508;12.252;2024-02-21T22:10:48;22.20;;;14.07;;
38785;SDS011;24535;45.508;12.252;2024-02-21T22:13:14;18.45;;;13.40;;
38785;SDS011;24535;45.508;12.252;2024-02-21T22:18:57;16.80;;;13.77;;
38785;SDS011;24535;45.508;12.252;2024-02-21T22:21:29;20.75;;;14.32;;
38785;SDS011;24535;45.508;12.252;2024-02-21T22:24:01;19.17;;;14.25;;
38785;SDS011;24535;45.508;12.252;2024-02-21T22:26:30;19.10;;;14.35;;
38785;SDS011;24535;45.508;12.252;2024-02-21T22:28:55;17.60;;;13.73;;
38785;SDS011;24535;45.508;12.252;2024-02-21T22:31:22;18.73;;;13.85;;
38785;SDS011;24535;45.508;12.252;2024-02-21T22:33:48;18.35;;;13.00;;
38785;SDS011;24535;45.508;12.252;2024-02-21T22:36:13;18.27;;;13.82;;
38785;SDS011;24535;45.508;12.252;2024-02-21T22:38:40;18.73;;;14.50;;
38785;SDS011;24535;45.508;12.252;2024-02-21T22:41:06;17.80;;;13.65;;
38785;SDS011;24535;45.508;12.252;2024-02-21T22:43:33;21.58;;;14.82;;
38785;SDS011;24535;45.508;12.252;2024-02-21T22:45:58;19.85;;;14.30;;
38785;SDS011;24535;45.508;12.252;2024-02-21T22:48:27;20.55;;;15.23;;
38785;SDS011;24535;45.508;12.252;2024-02-21T22:51:02;22.33;;;15.37;;
38785;SDS011;24535;45.508;12.252;2024-02-21T22:53:28;20.63;;;15.27;;
38785;SDS011;24535;45.508;12.252;2024-02-21T22:56:02;21.02;;;14.13;;
38785;SDS011;24535;45.508;12.252;2024-02-21T22:58:34;18.83;;;14.93;;
38785;SDS011;24535;45.508;12.252;2024-02-21T23:01:12;20.65;;;15.50;;
38785;SDS011;24535;45.508;12.252;2024-02-21T23:03:46;15.98;;;13.77;;
38785;SDS011;24535;45.508;12.252;2024-02-21T23:09:08;17.05;;;14.00;;
38785;SDS011;24535;45.508;12.252;2024-02-21T23:11:40;15.20;;;13.23;;
38785;SDS011;24535;45.508;12.252;2024-02-21T23:14:06;18.45;;;13.05;;
38785;SDS011;24535;45.508;12.252;2024-02-21T23:16:31;16.73;;;13.65;;
38785;SDS011;24535;45.508;12.252;2024-02-21T23:19:00;17.52;;;13.27;;
38785;SDS011;24535;45.508;12.252;2024-02-21T23:21:31;20.63;;;14.13;;
38785;SDS011;24535;45.508;12.252;2024-02-21T23:23:57;16.75;;;13.10;;
38785;SDS011;24535;45.508;12.252;2024-02-21T23:26:26;15.68;;;12.95;;
38785;SDS011;24535;45.508;12.252;2024-02-21T23:29:04;17.10;;;13.60;;
38785;SDS011;24535;45.508;12.252;2024-02-21T23:31:42;15.77;;;12.20;;
38785;SDS011;24535;45.508;12.252;2024-02-21T23:34:13;17.08;;;12.48;;
38785;SDS011;24535;45.508;12.252;2024-02-21T23:36:45;19.08;;;14.00;;
38785;SDS011;24535;45.508;12.252;2024-02-21T23:39:10;15.57;;;12.43;;
38785;SDS011;24535;45.508;12.252;2024-02-21T23:41:36;19.15;;;13.25;;
38785;SDS011;24535;45.508;12.252;2024-02-21T23:44:10;17.33;;;12.95;;
38785;SDS011;24535;45.508;12.252;2024-02-21T23:46:36;17.30;;;13.10;;
38785;SDS011;24535;45.508;12.252;2024-02-21T23:49:02;16.08;;;12.02;;
38785;SDS011;24535;45.508;12.252;2024-02-21T23:51:31;18.35;;;13.13;;
38785;SDS011;24535;45.508;12.252;2024-02-21T23:54:06;17.85;;;13.55;;